createdAt,value
2022-07-27T12:43:44.397Z,24.26
2022-07-27T12:46:13.030Z,23.70
2022-07-27T12:48:42.062Z,24.48
2022-07-27T12:51:09.985Z,24.85
2022-07-27T12:53:37.858Z,24.04
2022-07-27T12:56:10.218Z,24.52
2022-07-27T12:58:37.800Z,24.22
2022-07-27T13:01:05.453Z,23.87
2022-07-27T13:03:32.268Z,23.21
2022-07-27T13:05:58.909Z,23.45
2022-07-27T13:08:25.615Z,23.43
2022-07-27T13:10:52.614Z,23.63
2022-07-27T13:13:24.404Z,23.62
2022-07-27T13:15:51.382Z,22.70
2022-07-27T13:18:23.194Z,23.22
2022-07-27T13:20:50.610Z,23.75
2022-07-27T13:23:17.520Z,23.15
2022-07-27T13:25:44.173Z,23.09
2022-07-27T13:28:11.532Z,23.11
2022-07-27T13:30:38.194Z,24.08
2022-07-27T13:33:05.021Z,24.56
2022-07-27T13:35:31.712Z,24.16
2022-07-27T13:37:58.942Z,23.36
2022-07-27T13:40:25.622Z,23.04
2022-07-27T13:42:52.252Z,23.21
2022-07-27T13:45:18.944Z,22.41
2022-07-27T13:47:45.694Z,22.59
2022-07-27T13:50:18.450Z,23.03
2022-07-27T13:52:48.082Z,22.60
2022-07-27T13:55:18.265Z,24.24
2022-07-27T13:57:46.812Z,25.90
2022-07-27T14:00:14.311Z,25.70
2022-07-27T14:02:41.950Z,25.44
2022-07-27T14:05:13.242Z,25.17
2022-07-27T14:07:42.909Z,24.89
2022-07-27T14:10:30.405Z,26.13
2022-07-27T14:13:00.973Z,24.58
2022-07-27T14:15:34.519Z,24.79
2022-07-27T14:18:17.562Z,25.24
2022-07-27T14:20:44.221Z,24.64
2022-07-27T14:23:10.865Z,25.14
2022-07-27T14:25:37.694Z,25.16
2022-07-27T14:28:04.601Z,26.42
2022-07-27T14:30:31.257Z,26.24
2022-07-27T14:33:02.970Z,26.39
2022-07-27T14:35:29.921Z,26.63
2022-07-27T14:37:58.441Z,26.93
2022-07-27T14:40:25.797Z,26.77
2022-07-27T14:42:52.596Z,26.70
2022-07-27T14:45:19.965Z,26.31
2022-07-27T14:47:47.473Z,28.01
2022-07-27T14:50:15.054Z,29.49
2022-07-27T14:52:42.061Z,30.99
2022-07-27T14:55:09.709Z,31.30
2022-07-27T14:57:37.028Z,32.03
2022-07-27T15:00:10.593Z,32.61
2022-07-27T15:02:38.245Z,32.86
2022-07-27T15:05:06.665Z,33.06
2022-07-27T15:07:34.261Z,32.04
2022-07-27T15:10:02.290Z,31.90
2022-07-27T15:12:28.925Z,31.47
2022-07-27T15:14:57.171Z,31.64
2022-07-27T15:17:24.449Z,31.81
2022-07-27T15:19:51.743Z,31.99
2022-07-27T15:22:18.897Z,30.97
2022-07-27T15:24:45.662Z,32.07
2022-07-27T15:27:13.897Z,29.93
2022-07-27T15:29:41.194Z,30.03
2022-07-27T15:32:09.975Z,29.67
2022-07-27T15:34:37.410Z,29.87
2022-07-27T15:37:07.478Z,29.85
2022-07-27T15:39:39.036Z,29.40
2022-07-27T15:42:07.342Z,29.12
2022-07-27T15:44:35.336Z,30.47
2022-07-27T15:47:02.695Z,29.23
2022-07-27T15:49:29.757Z,29.47
2022-07-27T15:51:56.684Z,28.77
2022-07-27T15:54:24.181Z,31.92
2022-07-27T15:56:51.236Z,32.51
2022-07-27T15:59:17.948Z,32.60
2022-07-27T16:01:45.567Z,30.15
2022-07-27T16:04:16.641Z,30.30
2022-07-27T16:06:43.468Z,29.60
2022-07-27T16:09:10.558Z,28.57
2022-07-27T16:11:37.546Z,29.27
2022-07-27T16:14:04.533Z,28.09
2022-07-27T16:16:31.306Z,28.70
2022-07-27T16:19:13.123Z,28.85
2022-07-27T16:21:55.250Z,28.44
2022-07-27T16:24:23.785Z,26.20
2022-07-27T16:26:50.564Z,28.15
2022-07-27T16:29:17.305Z,27.70
2022-07-27T16:31:44.182Z,26.78
2022-07-27T16:34:10.876Z,26.94
2022-07-27T16:36:39.201Z,26.19
2022-07-27T16:39:06.240Z,27.22
2022-07-27T16:41:32.962Z,25.42
2022-07-27T16:43:59.685Z,26.50
2022-07-27T16:46:26.353Z,25.83
2022-07-27T16:48:53.303Z,26.18
2022-07-27T16:51:20.271Z,26.48
2022-07-27T16:53:50.579Z,26.81
2022-07-27T16:56:18.058Z,26.92
2022-07-27T16:58:45.112Z,26.78
2022-07-27T17:01:22.071Z,26.71
2022-07-27T17:03:53.779Z,26.42
2022-07-27T17:06:21.063Z,26.62
2022-07-27T17:08:48.553Z,26.24
2022-07-27T17:11:17.531Z,26.35
2022-07-27T17:13:49.056Z,26.30
2022-07-27T17:18:43.747Z,27.88
2022-07-27T17:21:13.129Z,29.39
2022-07-27T17:23:41.662Z,30.53
2022-07-27T17:26:09.734Z,31.10
2022-07-27T17:28:39.394Z,31.25
2022-07-27T17:31:08.896Z,32.33
2022-07-27T17:33:36.010Z,31.82
2022-07-27T17:36:02.687Z,32.19
2022-07-27T17:38:29.468Z,32.55
2022-07-27T17:40:56.362Z,32.83
2022-07-27T17:43:23.207Z,32.74
2022-07-27T17:45:49.939Z,33.27
2022-07-27T17:48:16.977Z,34.72
2022-07-27T17:50:43.650Z,36.00
2022-07-27T17:53:11.051Z,36.46
2022-07-27T17:55:37.986Z,37.36
2022-07-27T17:58:04.779Z,36.68
2022-07-27T18:00:31.646Z,36.21
2022-07-27T18:02:58.433Z,36.62
2022-07-27T18:05:25.258Z,37.27
2022-07-27T18:07:53.280Z,36.10
2022-07-27T18:10:20.796Z,36.19
2022-07-27T18:12:47.584Z,36.37
2022-07-27T18:15:32.786Z,36.74
2022-07-27T18:17:59.523Z,37.64
2022-07-27T18:20:26.633Z,36.63
2022-07-27T18:22:53.479Z,36.14
2022-07-27T18:25:21.986Z,35.92
2022-07-27T18:27:50.220Z,36.11
2022-07-27T18:30:17.856Z,35.91
2022-07-27T18:32:45.549Z,36.25
2022-07-27T18:35:13.108Z,36.70
2022-07-27T18:37:39.944Z,36.98
2022-07-27T18:40:09.109Z,36.68
2022-07-27T18:42:36.647Z,36.93
2022-07-27T18:45:04.715Z,36.80
2022-07-27T18:47:31.446Z,37.19
2022-07-27T18:49:58.214Z,37.32
2022-07-27T18:52:25.078Z,37.36
2022-07-27T18:54:51.769Z,37.57
2022-07-27T18:57:20.248Z,37.34
2022-07-27T18:59:50.158Z,37.10
2022-07-27T19:02:17.363Z,37.23
2022-07-27T19:04:44.873Z,37.44
2022-07-27T19:07:13.842Z,37.73
2022-07-27T19:09:42.706Z,38.03
2022-07-27T19:12:10.035Z,37.92
2022-07-27T19:14:37.145Z,37.82
2022-07-27T19:17:04.187Z,37.57
2022-07-27T19:19:31.182Z,37.86
2022-07-27T19:21:58.279Z,38.06
2022-07-27T19:24:25.071Z,38.57
2022-07-27T19:26:51.857Z,38.19
2022-07-27T19:29:19.877Z,38.42
2022-07-27T19:31:47.222Z,38.25
2022-07-27T19:34:13.925Z,38.09
2022-07-27T19:36:40.568Z,38.46
2022-07-27T19:39:08.065Z,38.75
2022-07-27T19:41:35.540Z,38.42
2022-07-27T19:44:02.720Z,38.19
2022-07-27T19:46:29.612Z,39.23
2022-07-27T19:48:56.534Z,39.67
2022-07-27T19:51:23.389Z,39.93
2022-07-27T19:53:53.575Z,40.08
2022-07-27T19:56:20.278Z,39.67
2022-07-27T19:58:46.976Z,40.21
2022-07-27T20:01:14.057Z,40.44
2022-07-27T20:03:51.997Z,39.74
2022-07-27T20:06:24.760Z,40.87
2022-07-27T20:08:55.844Z,41.24
2022-07-27T20:11:22.705Z,41.38
2022-07-27T20:13:49.339Z,41.13
2022-07-27T20:16:17.808Z,40.89
2022-07-27T20:18:44.620Z,40.82
2022-07-27T20:21:23.214Z,41.36
2022-07-27T20:23:54.649Z,41.02
2022-07-27T20:26:21.381Z,41.06
2022-07-27T20:28:50.090Z,40.70
2022-07-27T20:31:17.259Z,40.37
2022-07-27T20:33:44.243Z,40.37
2022-07-27T20:36:10.937Z,40.16
2022-07-27T20:38:37.671Z,40.14
2022-07-27T20:41:04.363Z,41.46
2022-07-27T20:43:31.970Z,40.96
2022-07-27T20:45:58.878Z,41.38
2022-07-27T20:48:25.643Z,41.20
2022-07-27T20:50:52.478Z,41.47
2022-07-27T20:53:20.365Z,40.98
2022-07-27T20:55:48.089Z,40.71
2022-07-27T20:58:15.157Z,40.76
2022-07-27T21:00:42.030Z,40.63
2022-07-27T21:03:08.719Z,40.70
2022-07-27T21:05:35.508Z,41.39
2022-07-27T21:08:04.574Z,42.44
2022-07-27T21:10:31.249Z,43.81
2022-07-27T21:12:58.546Z,44.89
2022-07-27T21:15:33.579Z,45.58
2022-07-27T21:18:01.447Z,44.83
2022-07-27T21:20:29.198Z,44.31
2022-07-27T21:23:15.164Z,43.28
2022-07-27T21:25:43.386Z,42.44
2022-07-27T21:28:16.516Z,42.31
2022-07-27T21:30:45.518Z,42.20
2022-07-27T21:33:12.285Z,42.23
2022-07-27T21:35:39.009Z,42.88
2022-07-27T21:38:06.280Z,42.70
2022-07-27T21:40:33.305Z,44.51
2022-07-27T21:43:00.965Z,44.78
2022-07-27T21:45:27.797Z,45.22
2022-07-27T21:47:54.545Z,45.82
2022-07-27T21:50:21.400Z,44.35
2022-07-27T21:52:48.083Z,44.64
2022-07-27T21:55:22.936Z,45.67
2022-07-27T21:57:50.683Z,46.88
2022-07-27T22:00:24.533Z,45.29
2022-07-27T22:02:52.325Z,43.29
2022-07-27T22:05:19.194Z,42.23
2022-07-27T22:07:45.880Z,41.30
2022-07-27T22:10:12.601Z,41.60
2022-07-27T22:12:39.343Z,42.62
2022-07-27T22:15:06.549Z,42.97
2022-07-27T22:17:33.423Z,41.60
2022-07-27T22:20:00.199Z,40.95
2022-07-27T22:22:26.889Z,41.21
2022-07-27T22:24:53.801Z,41.64
2022-07-27T22:27:21.007Z,41.44
2022-07-27T22:29:47.694Z,41.28
2022-07-27T22:32:14.419Z,41.57
2022-07-27T22:34:41.197Z,43.46
2022-07-27T22:37:07.866Z,42.51
2022-07-27T22:39:34.664Z,41.60
2022-07-27T22:42:01.353Z,42.10
2022-07-27T22:44:28.366Z,42.27
2022-07-27T22:46:55.136Z,42.76
2022-07-27T22:49:23.018Z,43.60
2022-07-27T22:51:52.671Z,42.50
2022-07-27T22:54:21.869Z,42.27
2022-07-27T22:56:48.727Z,43.16
2022-07-27T22:59:15.425Z,43.27
2022-07-27T23:01:46.248Z,42.83
2022-07-27T23:04:14.953Z,42.60
2022-07-27T23:06:42.549Z,42.00
2022-07-27T23:09:09.219Z,42.29
2022-07-27T23:11:35.889Z,43.46
2022-07-27T23:14:03.230Z,45.31
2022-07-27T23:16:30.016Z,47.79
2022-07-27T23:18:56.766Z,48.35
2022-07-27T23:21:23.400Z,47.31
2022-07-27T23:23:53.443Z,47.66
2022-07-27T23:26:25.624Z,46.09
2022-07-27T23:28:54.193Z,46.65
2022-07-27T23:31:21.624Z,46.16
2022-07-27T23:33:48.457Z,46.19
2022-07-27T23:36:15.175Z,45.82
2022-07-27T23:38:41.839Z,45.42
2022-07-27T23:41:08.656Z,45.70
2022-07-27T23:43:35.291Z,45.82
2022-07-27T23:46:02.795Z,45.39
2022-07-27T23:48:29.447Z,45.52
2022-07-27T23:50:56.129Z,45.21
2022-07-27T23:53:23.940Z,45.58
2022-07-27T23:55:50.802Z,45.86
2022-07-27T23:58:17.464Z,46.07
